Time;durP1;ratioP1;P1;durP2;ratioP2;P2;SDS_P1;SDS_P2;PMS_P1;PMS_P2;Temp;Humidity;BMP_temperature;BMP_pressure;BME280_temperature;BME280_humidity;BME280_pressure;Samples;Min_cycle;Max_cycle;Signal;HPM_P1;HPM_P2
2022/03/04 00:01:29;;;;;;;0.00;0.00;;;;;21.30;100525.00;;;;4841748;29;20073;-79
2022/03/04 00:03:59;;;;;;;0.00;0.00;;;;;21.20;100537.00;;;;4836919;29;20071;-79
2022/03/04 00:06:32;;;;;;;0.00;0.00;;;;;21.20;100545.00;;;;4843357;29;20140;-77
2022/03/04 00:09:02;;;;;;;0.00;0.00;;;;;21.20;100538.00;;;;4847246;29;20045;-78
2022/03/04 00:11:32;;;;;;;0.00;0.00;;;;;21.10;100538.00;;;;4836926;29;20508;-78
2022/03/04 00:14:02;;;;;;;0.00;0.00;;;;;21.10;100531.00;;;;4852636;29;20424;-77
2022/03/04 00:16:31;;;;;;;0.00;0.00;;;;;21.20;100525.00;;;;4855259;29;20496;-77
2022/03/04 00:19:09;;;;;;;0.00;0.00;;;;;21.10;100523.00;;;;4855815;29;20049;-77
2022/03/04 00:21:49;;;;;;;0.00;0.00;;;;;21.10;100536.00;;;;4855654;29;20045;-78
2022/03/04 00:24:22;;;;;;;0.00;0.00;;;;;21.10;100522.00;;;;4855490;29;20050;-78
2022/03/04 00:26:52;;;;;;;0.00;0.00;;;;;21.10;100515.00;;;;4855515;29;20050;-78
2022/03/04 00:29:21;;;;;;;0.00;0.00;;;;;21.10;100524.00;;;;4855893;29;20136;-76
2022/03/04 00:31:51;;;;;;;0.00;0.00;;;;;21.10;100520.00;;;;4855426;29;20488;-78
2022/03/04 00:34:21;;;;;;;0.00;0.00;;;;;21.00;100518.00;;;;4855932;29;20053;-79
2022/03/04 00:36:50;;;;;;;0.00;0.00;;;;;21.00;100505.00;;;;4856128;29;20636;-80
2022/03/04 00:39:19;;;;;;;0.00;0.00;;;;;20.90;100495.00;;;;4854773;29;20134;-79
2022/03/04 00:41:49;;;;;;;0.00;0.00;;;;;20.80;100507.00;;;;4855088;29;20049;-78
2022/03/04 00:44:18;;;;;;;0.00;0.00;;;;;20.70;100499.00;;;;4838637;29;20061;-78
2022/03/04 00:46:48;;;;;;;0.00;0.00;;;;;20.70;100506.00;;;;4855432;29;20144;-79
2022/03/04 00:49:18;;;;;;;0.00;0.00;;;;;20.70;100506.00;;;;4855529;29;20104;-77
2022/03/04 00:51:48;;;;;;;0.00;0.00;;;;;20.60;100498.00;;;;4853719;29;20057;-78
2022/03/04 00:54:17;;;;;;;0.00;0.00;;;;;20.60;100503.00;;;;4854457;29;20132;-78
2022/03/04 00:56:47;;;;;;;0.00;0.00;;;;;20.60;100513.00;;;;4853094;29;20095;-79
2022/03/04 00:59:16;;;;;;;0.00;0.00;;;;;20.60;100526.00;;;;4835425;29;20053;-78
2022/03/04 01:01:46;;;;;;;0.05;0.05;;;;;20.50;100513.00;;;;4853746;29;20061;-79
2022/03/04 01:04:15;;;;;;;0.00;0.00;;;;;20.50;100504.00;;;;4854136;29;20062;-79
2022/03/04 01:06:45;;;;;;;0.00;0.00;;;;;20.40;100527.00;;;;4854490;29;20049;-78
2022/03/04 01:09:14;;;;;;;0.08;0.08;;;;;20.40;100539.00;;;;4855397;29;20113;-80
2022/03/04 01:11:44;;;;;;;0.00;0.00;;;;;20.30;100536.00;;;;4854394;29;20046;-78
2022/03/04 01:14:13;;;;;;;0.00;0.00;;;;;20.40;100530.00;;;;4854251;29;20057;-77
2022/03/04 01:16:43;;;;;;;0.00;0.00;;;;;20.30;100511.00;;;;4854548;29;20536;-77
2022/03/04 01:19:13;;;;;;;0.00;0.00;;;;;20.30;100528.00;;;;4852221;29;20694;-78
2022/03/04 01:21:44;;;;;;;0.00;0.00;;;;;20.30;100522.00;;;;4854163;29;20405;-80
2022/03/04 01:24:14;;;;;;;0.00;0.00;;;;;20.30;100514.00;;;;4854091;29;20085;-80
2022/03/04 01:26:44;;;;;;;0.00;0.00;;;;;20.30;100538.00;;;;4854203;29;20057;-80
2022/03/04 01:29:13;;;;;;;0.00;0.00;;;;;20.30;100524.00;;;;4853316;29;20056;-80
2022/03/04 01:31:42;;;;;;;0.00;0.00;;;;;20.30;100522.00;;;;4853990;29;20053;-79
2022/03/04 01:34:12;;;;;;;0.00;0.00;;;;;20.30;100525.00;;;;4854003;29;20053;-80
2022/03/04 01:36:42;;;;;;;0.00;0.00;;;;;20.30;100520.00;;;;4854049;29;20049;-78
2022/03/04 01:39:12;;;;;;;0.00;0.00;;;;;20.20;100518.00;;;;4854221;29;20094;-79
2022/03/04 01:41:41;;;;;;;0.00;0.00;;;;;20.20;100520.00;;;;4837504;29;20439;-79
2022/03/04 01:44:10;;;;;;;0.00;0.00;;;;;20.10;100525.00;;;;4854706;29;20060;-78
2022/03/04 01:46:43;;;;;;;0.00;0.00;;;;;20.10;100522.00;;;;4823380;29;20105;-79
2022/03/04 01:49:13;;;;;;;0.00;0.00;;;;;20.10;100512.00;;;;4853872;29;20053;-76
2022/03/04 01:51:42;;;;;;;0.00;0.00;;;;;20.00;100510.00;;;;4853910;29;20037;-78
2022/03/04 01:54:12;;;;;;;0.00;0.00;;;;;20.00;100524.00;;;;4853537;29;20053;-79
2022/03/04 01:56:42;;;;;;;0.00;0.00;;;;;19.90;100510.00;;;;4837759;29;20057;-78
2022/03/04 01:59:12;;;;;;;0.00;0.00;;;;;19.90;100513.00;;;;4853792;29;20042;-78
2022/03/04 02:01:47;;;;;;;0.05;0.05;;;;;19.90;100517.00;;;;4854178;29;20049;-79
2022/03/04 02:04:20;;;;;;;0.05;0.05;;;;;19.90;100500.00;;;;4854075;29;20464;-78
2022/03/04 02:06:50;;;;;;;0.30;0.30;;;;;19.80;100520.00;;;;4853905;29;20129;-77
2022/03/04 02:09:20;;;;;;;0.00;0.00;;;;;19.70;100505.00;;;;4854305;29;20041;-78
2022/03/04 02:11:49;;;;;;;0.00;0.00;;;;;19.60;100524.00;;;;4853896;29;20053;-79
2022/03/04 02:14:19;;;;;;;0.00;0.00;;;;;19.60;100516.00;;;;4853869;29;20056;-80
2022/03/04 02:16:51;;;;;;;0.00;0.00;;;;;19.50;100525.00;;;;4854007;29;20064;-79
2022/03/04 02:19:23;;;;;;;1.98;0.20;;;;;19.60;100506.00;;;;4853554;29;20053;-78
2022/03/04 02:21:55;;;;;;;0.00;0.00;;;;;19.50;100521.00;;;;4854873;29;20064;-79
2022/03/04 02:24:26;;;;;;;0.20;0.20;;;;;19.50;100500.00;;;;4857021;29;20124;-79
2022/03/04 02:26:58;;;;;;;0.10;0.10;;;;;19.40;100513.00;;;;4857379;29;20076;-80
2022/03/04 02:29:31;;;;;;;0.00;0.00;;;;;19.40;100511.00;;;;4857542;29;20053;-79
2022/03/04 02:32:01;;;;;;;0.00;0.00;;;;;19.40;100506.00;;;;4857355;29;20045;-78
2022/03/04 02:34:31;;;;;;;0.05;0.05;;;;;19.40;100493.00;;;;4857796;29;20049;-78
2022/03/04 02:37:00;;;;;;;0.08;0.08;;;;;19.40;100497.00;;;;4856824;29;20535;-79
2022/03/04 02:39:31;;;;;;;0.00;0.00;;;;;19.40;100504.00;;;;4857234;29;20517;-78
2022/03/04 02:42:00;;;;;;;0.00;0.00;;;;;19.40;100503.00;;;;4857315;29;20057;-79
2022/03/04 02:44:29;;;;;;;0.00;0.00;;;;;19.30;100500.00;;;;4856831;29;20054;-79
2022/03/04 02:47:00;;;;;;;0.00;0.00;;;;;19.30;100499.00;;;;4857592;29;20450;-78
2022/03/04 02:49:29;;;;;;;0.00;0.00;;;;;19.30;100495.00;;;;4856655;29;20065;-79
2022/03/04 02:51:59;;;;;;;0.00;0.00;;;;;19.30;100502.00;;;;4857441;29;20053;-79
2022/03/04 02:54:31;;;;;;;0.10;0.10;;;;;19.30;100495.00;;;;4856597;29;20848;-77
2022/03/04 02:57:03;;;;;;;0.00;0.00;;;;;19.20;100496.00;;;;4857355;29;20080;-79
2022/03/04 02:59:33;;;;;;;0.00;0.00;;;;;19.20;100497.00;;;;4857056;29;20513;-80
2022/03/04 03:02:02;;;;;;;0.00;0.00;;;;;19.00;100501.00;;;;4857084;29;20045;-77
2022/03/04 03:04:32;;;;;;;0.00;0.00;;;;;18.80;100488.00;;;;4856605;29;20053;-78
2022/03/04 03:07:02;;;;;;;0.00;0.00;;;;;18.90;100485.00;;;;4856445;29;20088;-79
2022/03/04 03:09:32;;;;;;;0.00;0.00;;;;;18.90;100479.00;;;;4857047;29;20078;-82
2022/03/04 03:12:01;;;;;;;0.00;0.00;;;;;18.90;100481.00;;;;4856844;29;20437;-78
2022/03/04 03:14:31;;;;;;;0.00;0.00;;;;;18.80;100485.00;;;;4856879;29;20565;-79
2022/03/04 03:17:00;;;;;;;0.00;0.00;;;;;18.80;100486.00;;;;4840292;29;20079;-77
2022/03/04 03:19:30;;;;;;;0.00;0.00;;;;;18.70;100480.00;;;;4856672;29;20054;-78
2022/03/04 03:22:00;;;;;;;0.00;0.00;;;;;18.70;100480.00;;;;4857409;29;20053;-78
2022/03/04 03:24:29;;;;;;;0.00;0.00;;;;;18.60;100480.00;;;;4857203;29;20053;-77
2022/03/04 03:27:00;;;;;;;0.00;0.00;;;;;18.50;100477.00;;;;4855925;29;20528;-77
2022/03/04 03:29:29;;;;;;;0.00;0.00;;;;;18.50;100494.00;;;;4856252;29;20056;-77
2022/03/04 03:31:59;;;;;;;0.00;0.00;;;;;18.50;100486.00;;;;4856339;29;20057;-78
2022/03/04 03:34:28;;;;;;;0.00;0.00;;;;;18.50;100478.00;;;;4855799;29;20106;-78
2022/03/04 03:36:58;;;;;;;0.00;0.00;;;;;18.50;100479.00;;;;4839392;29;20444;-78
2022/03/04 03:39:27;;;;;;;0.00;0.00;;;;;18.50;100463.00;;;;4856162;29;20038;-79
2022/03/04 03:41:57;;;;;;;0.00;0.00;;;;;18.50;100476.00;;;;4840266;29;20064;-79
2022/03/04 03:44:26;;;;;;;0.00;0.00;;;;;18.50;100458.00;;;;4856329;29;20054;-78
2022/03/04 03:46:56;;;;;;;0.00;0.00;;;;;18.50;100476.00;;;;4855729;29;20063;-77
2022/03/04 03:49:26;;;;;;;0.00;0.00;;;;;18.50;100450.00;;;;4855787;29;20057;-78
2022/03/04 03:51:55;;;;;;;0.00;0.00;;;;;18.50;100461.00;;;;4855617;29;20057;-78
2022/03/04 03:54:25;;;;;;;0.00;0.00;;;;;18.50;100453.00;;;;4856019;29;20196;-76
2022/03/04 03:56:54;;;;;;;0.85;0.55;;;;;18.40;100438.00;;;;4855551;29;20041;-77
2022/03/04 03:59:24;;;;;;;0.00;0.00;;;;;18.40;100450.00;;;;4856222;29;20049;-78
2022/03/04 04:01:53;;;;;;;0.00;0.00;;;;;18.40;100447.00;;;;4855797;29;20486;-80
2022/03/04 04:04:23;;;;;;;0.00;0.00;;;;;18.50;100436.00;;;;4855941;29;20049;-76
2022/03/04 04:06:53;;;;;;;0.00;0.00;;;;;18.50;100437.00;;;;4855977;29;20053;-78
2022/03/04 04:09:22;;;;;;;0.00;0.00;;;;;18.50;100439.00;;;;4856378;29;20060;-78
2022/03/04 04:11:52;;;;;;;0.00;0.00;;;;;18.40;100437.00;;;;4855062;29;20052;-77
2022/03/04 04:14:21;;;;;;;0.00;0.00;;;;;18.30;100443.00;;;;4856443;29;20148;-78
2022/03/04 04:16:51;;;;;;;0.00;0.00;;;;;18.40;100418.00;;;;4838848;29;20056;-79
2022/03/04 04:19:20;;;;;;;0.00;0.00;;;;;18.40;100428.00;;;;4855176;29;20053;-79
2022/03/04 04:21:51;;;;;;;0.22;0.17;;;;;18.30;100427.00;;;;4855578;29;20060;-78
2022/03/04 04:24:21;;;;;;;;;;;;;18.20;100425.00;;;;4856034;29;20408;-77
2022/03/04 04:26:50;;;;;;;0.00;0.00;;;;;18.10;100414.00;;;;4855689;29;19924;-77
2022/03/04 04:29:20;;;;;;;0.22;0.20;;;;;18.20;100425.00;;;;4855668;29;20124;-77
2022/03/04 04:31:50;;;;;;;0.00;0.00;;;;;18.30;100398.00;;;;4855837;29;20041;-75
2022/03/04 04:34:20;;;;;;;0.00;0.00;;;;;18.20;100405.00;;;;4855013;29;20109;-79
2022/03/04 04:36:49;;;;;;;0.75;0.32;;;;;18.20;100410.00;;;;4855234;29;20511;-77
2022/03/04 04:39:19;;;;;;;0.00;0.00;;;;;18.20;100394.00;;;;4854818;29;20525;-78
2022/03/04 04:41:49;;;;;;;0.30;0.30;;;;;18.20;100391.00;;;;4855262;29;20080;-76
2022/03/04 04:44:21;;;;;;;0.00;0.00;;;;;18.10;100382.00;;;;4854524;29;20057;-78
2022/03/04 04:46:50;;;;;;;;;;;;;18.00;100397.00;;;;4855582;29;20129;-78
2022/03/04 04:49:19;;;;;;;0.00;0.00;;;;;18.00;100384.00;;;;4854213;29;19927;-80
2022/03/04 04:51:49;;;;;;;0.00;0.00;;;;;18.00;100383.00;;;;4855232;29;20600;-78
2022/03/04 04:54:19;;;;;;;0.00;0.00;;;;;18.00;100398.00;;;;4855213;29;20052;-78
2022/03/04 04:56:51;;;;;;;0.00;0.00;;;;;18.00;100391.00;;;;4854695;29;20041;-77
2022/03/04 04:59:20;;;;;;;0.00;0.00;;;;;18.00;100373.00;;;;4854586;29;20081;-79
2022/03/04 05:01:50;;;;;;;0.00;0.00;;;;;18.00;100374.00;;;;4854636;29;20071;-79
2022/03/04 05:04:22;;;;;;;0.00;0.00;;;;;17.90;100388.00;;;;4837494;29;20068;-77
2022/03/04 05:06:52;;;;;;;0.00;0.00;;;;;17.90;100376.00;;;;4854233;29;20045;-78
2022/03/04 05:09:22;;;;;;;0.00;0.00;;;;;17.90;100364.00;;;;4854604;29;20045;-78
2022/03/04 05:11:51;;;;;;;0.00;0.00;;;;;17.90;100375.00;;;;4855033;29;20616;-79
2022/03/04 05:14:21;;;;;;;0.00;0.00;;;;;17.90;100358.00;;;;4854968;29;20750;-77
2022/03/04 05:16:50;;;;;;;0.00;0.00;;;;;17.90;100370.00;;;;4837993;29;20053;-78
2022/03/04 05:19:20;;;;;;;0.10;0.10;;;;;17.80;100377.00;;;;4854010;29;20057;-78
2022/03/04 05:21:49;;;;;;;0.00;0.00;;;;;17.90;100390.00;;;;4854472;29;20037;-79
2022/03/04 05:24:18;;;;;;;0.00;0.00;;;;;17.90;100372.00;;;;4837740;29;20057;-76
2022/03/04 05:26:48;;;;;;;0.00;0.00;;;;;17.80;100371.00;;;;4854455;29;20050;-77
2022/03/04 05:29:18;;;;;;;0.00;0.00;;;;;17.80;100357.00;;;;4854053;29;20045;-79
2022/03/04 05:31:47;;;;;;;0.00;0.00;;;;;17.80;100373.00;;;;4854158;29;20057;-79
2022/03/04 05:34:19;;;;;;;0.00;0.00;;;;;17.70;100379.00;;;;4854408;29;20046;-79
2022/03/04 05:36:48;;;;;;;0.00;0.00;;;;;17.60;100364.00;;;;4854519;29;20050;-77
2022/03/04 05:39:18;;;;;;;0.00;0.00;;;;;17.60;100375.00;;;;4838059;29;20045;-79
2022/03/04 05:41:48;;;;;;;0.00;0.00;;;;;17.60;100382.00;;;;4854213;29;20049;-79
2022/03/04 05:44:18;;;;;;;0.00;0.00;;;;;17.60;100374.00;;;;4853795;29;20114;-77
2022/03/04 05:46:47;;;;;;;0.00;0.00;;;;;17.60;100382.00;;;;4853987;29;20406;-78
2022/03/04 05:49:17;;;;;;;0.00;0.00;;;;;17.60;100363.00;;;;4854521;29;20064;-79
2022/03/04 05:51:46;;;;;;;0.00;0.00;;;;;17.60;100362.00;;;;4853636;29;20053;-79
2022/03/04 05:54:16;;;;;;;0.00;0.00;;;;;17.50;100380.00;;;;4854453;29;20133;-79
2022/03/04 05:56:45;;;;;;;0.00;0.00;;;;;17.50;100363.00;;;;4837482;29;20046;-77
2022/03/04 05:59:14;;;;;;;0.00;0.00;;;;;17.50;100347.00;;;;4853981;29;20168;-78
2022/03/04 06:01:44;;;;;;;0.00;0.00;;;;;17.50;100355.00;;;;4837931;29;20060;-79
2022/03/04 06:04:13;;;;;;;0.00;0.00;;;;;17.50;100351.00;;;;4853897;29;20073;-77
2022/03/04 06:06:43;;;;;;;0.17;0.17;;;;;17.50;100360.00;;;;4854707;29;20139;-77
2022/03/04 06:09:13;;;;;;;0.00;0.00;;;;;17.50;100351.00;;;;4853914;29;20137;-78
2022/03/04 06:11:45;;;;;;;0.00;0.00;;;;;17.50;100335.00;;;;4853844;29;20057;-78
2022/03/04 06:14:18;;;;;;;0.00;0.00;;;;;17.40;100351.00;;;;4853712;29;20045;-78
2022/03/04 06:16:48;;;;;;;0.00;0.00;;;;;17.50;100357.00;;;;4837129;29;20049;-79
2022/03/04 06:19:17;;;;;;;0.00;0.00;;;;;17.40;100362.00;;;;4837205;29;20057;-77
2022/03/04 06:21:46;;;;;;;0.00;0.00;;;;;17.50;100338.00;;;;4853636;29;20924;-76
2022/03/04 06:24:16;;;;;;;0.00;0.00;;;;;17.40;100342.00;;;;4854588;29;20092;-78
2022/03/04 06:26:45;;;;;;;0.00;0.00;;;;;17.40;100343.00;;;;4853684;29;20502;-77
2022/03/04 06:29:15;;;;;;;0.00;0.00;;;;;17.30;100321.00;;;;4852996;29;20059;-78
2022/03/04 06:31:48;;;;;;;0.00;0.00;;;;;17.20;100340.00;;;;4854096;29;20183;-76
2022/03/04 06:34:18;;;;;;;0.00;0.00;;;;;17.20;100350.00;;;;4854567;29;20049;-78
2022/03/04 06:36:47;;;;;;;0.00;0.00;;;;;17.20;100339.00;;;;4853781;29;20100;-79
2022/03/04 06:39:17;;;;;;;0.00;0.00;;;;;17.20;100340.00;;;;4853868;29;20061;-78
2022/03/04 06:41:48;;;;;;;0.00;0.00;;;;;17.20;100347.00;;;;4853317;29;20064;-79
2022/03/04 06:44:20;;;;;;;0.00;0.00;;;;;17.10;100342.00;;;;4854178;29;20041;-79
2022/03/04 06:46:53;;;;;;;0.00;0.00;;;;;17.10;100349.00;;;;4854543;29;20056;-78
2022/03/04 06:49:23;;;;;;;0.00;0.00;;;;;17.10;100344.00;;;;4854112;29;20087;-79
2022/03/04 06:51:54;;;;;;;0.00;0.00;;;;;17.10;100349.00;;;;4837330;29;20175;-79
2022/03/04 06:54:24;;;;;;;0.00;0.00;;;;;17.10;100348.00;;;;4853439;29;20049;-78
2022/03/04 06:56:54;;;;;;;0.00;0.00;;;;;17.00;100337.00;;;;4854009;29;20049;-78
2022/03/04 06:59:23;;;;;;;0.00;0.00;;;;;17.00;100341.00;;;;4836416;29;20436;-78
2022/03/04 07:01:53;;;;;;;0.00;0.00;;;;;17.00;100354.00;;;;4853355;29;20041;-78
2022/03/04 07:04:24;;;;;;;0.00;0.00;;;;;17.00;100338.00;;;;4854458;29;20056;-79
2022/03/04 07:06:53;;;;;;;0.00;0.00;;;;;17.10;100350.00;;;;4853356;29;20498;-79
2022/03/04 07:09:23;;;;;;;0.00;0.00;;;;;17.00;100343.00;;;;4856153;29;20053;-78
2022/03/04 07:11:54;;;;;;;0.00;0.00;;;;;17.00;100335.00;;;;4857966;29;20056;-78
2022/03/04 07:14:24;;;;;;;0.00;0.00;;;;;17.00;100334.00;;;;4856792;29;20105;-78
2022/03/04 07:16:54;;;;;;;0.00;0.00;;;;;17.00;100331.00;;;;4856697;29;20072;-79
2022/03/04 07:19:26;;;;;;;0.00;0.00;;;;;16.90;100341.00;;;;4856561;29;20409;-78
2022/03/04 07:21:56;;;;;;;0.00;0.00;;;;;17.00;100333.00;;;;4856861;29;20082;-76
2022/03/04 07:24:25;;;;;;;0.00;0.00;;;;;16.90;100333.00;;;;4856488;29;20521;-77
2022/03/04 07:26:58;;;;;;;0.00;0.00;;;;;17.00;100344.00;;;;4856581;29;20132;-79
2022/03/04 07:29:28;;;;;;;0.00;0.00;;;;;17.10;100335.00;;;;4856330;29;20057;-78
2022/03/04 07:32:00;;;;;;;0.00;0.00;;;;;17.00;100325.00;;;;4856634;29;20402;-76
2022/03/04 07:34:30;;;;;;;0.00;0.00;;;;;17.00;100342.00;;;;4856660;29;20053;-78
2022/03/04 07:37:00;;;;;;;0.00;0.00;;;;;17.00;100350.00;;;;4856227;29;20527;-78
2022/03/04 07:39:29;;;;;;;0.00;0.00;;;;;17.00;100336.00;;;;4857211;29;20053;-78
2022/03/04 07:42:01;;;;;;;0.00;0.00;;;;;17.10;100356.00;;;;4856626;29;20060;-77
2022/03/04 07:44:32;;;;;;;0.00;0.00;;;;;17.00;100342.00;;;;4856115;29;20046;-77
2022/03/04 07:47:01;;;;;;;0.00;0.00;;;;;17.00;100352.00;;;;4839577;29;20080;-80
2022/03/04 07:49:31;;;;;;;0.00;0.00;;;;;17.00;100337.00;;;;4855855;29;20065;-78
2022/03/04 07:52:00;;;;;;;0.00;0.00;;;;;17.00;100348.00;;;;4840187;29;20053;-79
2022/03/04 07:54:30;;;;;;;0.00;0.00;;;;;17.00;100342.00;;;;4857305;29;20432;-79
2022/03/04 07:56:59;;;;;;;0.00;0.00;;;;;17.10;100356.00;;;;4856080;29;20156;-77
2022/03/04 07:59:29;;;;;;;0.00;0.00;;;;;17.00;100348.00;;;;4856461;29;20049;-78
2022/03/04 08:01:58;;;;;;;0.00;0.00;;;;;17.00;100347.00;;;;4855546;29;20433;-79
2022/03/04 08:04:28;;;;;;;0.00;0.00;;;;;17.00;100332.00;;;;4855119;29;20045;-77
2022/03/04 08:06:58;;;;;;;0.00;0.00;;;;;17.00;100346.00;;;;4855894;29;20145;-78
2022/03/04 08:09:27;;;;;;;0.00;0.00;;;;;17.00;100352.00;;;;4855422;29;20105;-78
2022/03/04 08:11:57;;;;;;;0.00;0.00;;;;;17.00;100342.00;;;;4855556;29;20086;-77
2022/03/04 08:14:26;;;;;;;0.00;0.00;;;;;16.90;100345.00;;;;4856337;29;20106;-77
2022/03/04 08:16:59;;;;;;;0.00;0.00;;;;;16.90;100351.00;;;;4856028;29;20430;-78
2022/03/04 08:19:29;;;;;;;0.00;0.00;;;;;16.90;100356.00;;;;4854634;29;20085;-77
2022/03/04 08:21:59;;;;;;;0.00;0.00;;;;;16.90;100374.00;;;;4855650;29;20057;-77
2022/03/04 08:24:49;;;;;;;0.00;0.00;;;;;16.90;100369.00;;;;4855229;29;20076;-78
2022/03/04 08:27:18;;;;;;;0.00;0.00;;;;;16.90;100368.00;;;;4855632;29;20050;-77
2022/03/04 08:29:50;;;;;;;0.00;0.00;;;;;16.90;100377.00;;;;4855404;29;20088;-80
2022/03/04 08:32:23;;;;;;;0.00;0.00;;;;;16.90;100364.00;;;;4855089;29;20060;-76
2022/03/04 08:35:00;;;;;;;0.00;0.00;;;;;16.90;100365.00;;;;4855977;29;20053;-78
2022/03/04 08:37:32;;;;;;;0.00;0.00;;;;;16.90;100369.00;;;;4855029;29;20386;-77
2022/03/04 08:40:05;;;;;;;0.00;0.00;;;;;16.90;100350.00;;;;4855601;29;20051;-78
2022/03/04 08:42:35;;;;;;;0.00;0.00;;;;;16.90;100364.00;;;;4855941;29;20097;-76
2022/03/04 08:45:08;;;;;;;0.00;0.00;;;;;16.80;100352.00;;;;4855907;29;20055;-77
2022/03/04 08:47:44;;;;;;;0.00;0.00;;;;;16.80;100350.00;;;;4855108;29;20346;-81
2022/03/04 08:50:16;;;;;;;0.00;0.00;;;;;16.90;100361.00;;;;4854852;29;20497;-77
2022/03/04 08:52:46;;;;;;;0.00;0.00;;;;;16.80;100344.00;;;;4854851;29;20077;-75
2022/03/04 08:55:16;;;;;;;0.00;0.00;;;;;16.80;100356.00;;;;4855488;29;20053;-76
2022/03/04 08:57:46;;;;;;;0.00;0.00;;;;;16.80;100348.00;;;;4855496;29;20045;-76
2022/03/04 09:00:17;;;;;;;0.00;0.00;;;;;16.80;100343.00;;;;4854998;29;20514;-77
2022/03/04 09:02:47;;;;;;;0.00;0.00;;;;;16.80;100348.00;;;;4855375;29;20073;-77
2022/03/04 09:05:19;;;;;;;0.00;0.00;;;;;16.90;100349.00;;;;4855071;29;20046;-78
2022/03/04 09:07:49;;;;;;;0.00;0.00;;;;;16.80;100363.00;;;;4854823;29;20611;-76
2022/03/04 09:10:18;;;;;;;0.00;0.00;;;;;16.80;100363.00;;;;4854763;29;20144;-78
2022/03/04 09:12:48;;;;;;;0.00;0.00;;;;;16.80;100373.00;;;;4855057;29;20410;-77
2022/03/04 09:15:18;;;;;;;0.00;0.00;;;;;16.80;100365.00;;;;4854676;29;20976;-78
2022/03/04 09:17:48;;;;;;;0.00;0.00;;;;;16.80;100375.00;;;;4854486;29;20290;-78
2022/03/04 09:20:19;;;;;;;0.00;0.00;;;;;16.80;100376.00;;;;4854831;29;20054;-77
2022/03/04 09:22:49;;;;;;;0.00;0.00;;;;;16.80;100373.00;;;;4854843;29;20049;-76
2022/03/04 09:25:19;;;;;;;0.00;0.00;;;;;16.80;100381.00;;;;4854910;29;20049;-77
2022/03/04 09:27:50;;;;;;;0.00;0.00;;;;;16.70;100376.00;;;;4854642;29;20067;-77
2022/03/04 09:30:20;;;;;;;0.00;0.00;;;;;16.80;100377.00;;;;4855636;29;20049;-78
2022/03/04 09:32:49;;;;;;;0.00;0.00;;;;;16.90;100367.00;;;;4854003;29;20041;-77
2022/03/04 09:35:19;;;;;;;0.00;0.00;;;;;16.90;100375.00;;;;4854645;29;20053;-78
2022/03/04 09:37:49;;;;;;;0.00;0.00;;;;;17.00;100364.00;;;;4854687;29;20053;-77
2022/03/04 09:40:19;;;;;;;0.00;0.00;;;;;17.00;100377.00;;;;4854831;29;20048;-77
2022/03/04 09:42:49;;;;;;;0.00;0.00;;;;;17.10;100375.00;;;;4854199;29;20117;-76
2022/03/04 09:45:18;;;;;;;0.00;0.00;;;;;17.10;100382.00;;;;4854689;29;20105;-78
2022/03/04 09:47:48;;;;;;;0.00;0.00;;;;;17.20;100380.00;;;;4854409;29;20058;-78
2022/03/04 09:50:19;;;;;;;0.00;0.00;;;;;17.20;100373.00;;;;4854161;29;20448;-78
2022/03/04 09:52:51;;;;;;;0.00;0.00;;;;;17.30;100376.00;;;;4854389;29;20053;-77
2022/03/04 09:55:23;;;;;;;0.00;0.00;;;;;17.40;100385.00;;;;4854324;29;20077;-79
2022/03/04 09:57:53;;;;;;;0.00;0.00;;;;;17.50;100367.00;;;;4854090;29;20050;-79
2022/03/04 10:00:23;;;;;;;0.00;0.00;;;;;17.60;100367.00;;;;4837335;29;20057;-77
2022/03/04 10:02:53;;;;;;;0.00;0.00;;;;;17.70;100381.00;;;;4854264;29;20081;-77
2022/03/04 10:05:23;;;;;;;0.00;0.00;;;;;17.80;100357.00;;;;4854418;29;20049;-78
2022/03/04 10:07:55;;;;;;;0.00;0.00;;;;;17.90;100370.00;;;;4853627;29;20053;-77
2022/03/04 10:10:25;;;;;;;0.00;0.00;;;;;18.00;100376.00;;;;4854150;29;20517;-77
2022/03/04 10:13:01;;;;;;;0.00;0.00;;;;;18.20;100381.00;;;;4854350;29;20049;-78
2022/03/04 10:15:31;;;;;;;0.00;0.00;;;;;18.30;100371.00;;;;4854684;29;20052;-78
2022/03/04 10:18:03;;;;;;;0.00;0.00;;;;;18.40;100383.00;;;;4853549;29;20049;-78
2022/03/04 10:20:44;;;;;;;0.00;0.00;;;;;18.70;100387.00;;;;4853779;29;20579;-78
2022/03/04 10:23:20;;;;;;;0.00;0.00;;;;;18.80;100367.00;;;;4837113;29;20061;-81
2022/03/04 10:25:52;;;;;;;0.00;0.00;;;;;19.20;100368.00;;;;4853629;29;20068;-79
2022/03/04 10:28:25;;;;;;;0.00;0.00;;;;;23.50;100256.00;;;;4854219;29;20431;-79
2022/03/04 10:30:56;;;;;;;0.00;0.00;;;;;26.00;100254.00;;;;4853116;29;20042;-77
2022/03/04 10:33:46;;;;;;;0.00;0.00;;;;;26.00;100264.00;;;;4854270;29;20079;-79
2022/03/04 10:36:16;;;;;;;0.00;0.00;;;;;26.80;100236.00;;;;4837786;29;20517;-79
2022/03/04 10:39:08;;;;;;;0.00;0.00;;;;;28.70;100241.00;;;;4854279;29;20098;-79
2022/03/04 10:41:49;;;;;;;0.00;0.00;;;;;25.40;100344.00;;;;4853637;29;20049;-77
2022/03/04 10:44:26;;;;;;;0.10;0.10;;;;;27.10;100217.00;;;;4857106;29;20133;-77
2022/03/04 10:46:58;;;;;;;0.28;0.28;;;;;29.80;100195.00;;;;4857302;29;20125;-79
2022/03/04 10:49:30;;;;;;;0.00;0.00;;;;;31.20;100182.00;;;;4857073;29;20061;-79
2022/03/04 10:52:09;;;;;;;0.00;0.00;;;;;31.40;100197.00;;;;4856912;29;20413;-81
2022/03/04 10:54:38;;;;;;;0.00;0.00;;;;;32.40;100154.00;;;;4857009;29;20525;-80
2022/03/04 10:57:08;;;;;;;0.00;0.00;;;;;32.60;100157.00;;;;4856852;29;20716;-83
2022/03/04 10:59:57;;;;;;;0.00;0.00;;;;;32.40;100154.00;;;;4857123;29;20049;-79
2022/03/04 11:02:43;;;;;;;0.00;0.00;;;;;32.70;100147.00;;;;4857055;29;20042;-81
2022/03/04 11:05:14;;;;;;;0.00;0.00;;;;;32.80;100151.00;;;;4856563;29;20076;-78
2022/03/04 11:07:44;;;;;;;0.00;0.00;;;;;32.60;100164.00;;;;4857043;29;20105;-80
2022/03/04 11:10:13;;;;;;;0.00;0.00;;;;;32.20;100171.00;;;;4857050;29;20065;-82
2022/03/04 11:12:45;;;;;;;0.00;0.00;;;;;32.10;100182.00;;;;4857251;29;20061;-82
2022/03/04 11:15:18;;;;;;;0.00;0.00;;;;;32.30;100192.00;;;;4856815;29;20053;-82
2022/03/04 11:17:48;;;;;;;0.00;0.00;;;;;33.00;100176.00;;;;4856793;29;20520;-82
2022/03/04 11:20:19;;;;;;;0.80;0.22;;;;;33.50;100185.00;;;;4856191;29;20065;-83
2022/03/04 11:22:51;;;;;;;;;;;;;34.50;100213.00;;;;4857482;29;20521;-80
2022/03/04 11:25:22;;;;;;;0.00;0.00;;;;;35.90;100213.00;;;;4856661;29;19924;-84
2022/03/04 11:27:56;;;;;;;0.00;0.00;;;;;35.70;100234.00;;;;4857224;29;20053;-80
2022/03/04 11:30:41;;;;;;;0.00;0.00;;;;;35.50;100237.00;;;;4856146;29;20045;-80
2022/03/04 11:33:22;;;;;;;0.52;0.52;;;;;34.50;100244.00;;;;4855917;29;20045;-80
2022/03/04 11:36:08;;;;;;;5.13;4.80;;;;;33.40;100264.00;;;;4856964;29;20094;-79
2022/03/04 11:38:50;;;;;;;0.00;0.00;;;;;33.90;100264.00;;;;4856763;29;20458;-83
2022/03/04 11:41:30;;;;;;;0.05;0.00;;;;;32.50;100281.00;;;;4856483;29;20057;-84
2022/03/04 11:44:24;;;;;;;0.00;0.00;;;;;30.60;100376.00;;;;4856434;29;20069;-78
2022/03/04 11:47:01;;;;;;;0.00;0.00;;;;;30.00;100349.00;;;;4856912;29;20074;-82
2022/03/04 11:49:48;;;;;;;0.00;0.00;;;;;29.30;100350.00;;;;4856660;29;20050;-82
2022/03/04 11:52:25;;;;;;;0.00;0.00;;;;;28.30;100379.00;;;;4856710;29;20525;-79
2022/03/04 11:55:00;;;;;;;0.00;0.00;;;;;28.10;100380.00;;;;4839285;29;20057;-78
2022/03/04 11:57:35;;;;;;;0.00;0.00;;;;;28.80;100370.00;;;;4856729;29;20074;-82
2022/03/04 12:00:10;;;;;;;0.17;0.17;;;;;33.40;100296.00;;;;4855416;29;20084;-82
2022/03/04 12:02:47;;;;;;;0.00;0.00;;;;;35.50;100286.00;;;;4856329;29;20144;-79
2022/03/04 12:05:22;;;;;;;0.00;0.00;;;;;35.20;100313.00;;;;4856614;29;20061;-79
2022/03/04 12:07:57;;;;;;;0.00;0.00;;;;;35.00;100322.00;;;;4857473;29;20141;-78
2022/03/04 12:10:30;;;;;;;0.00;0.00;;;;;34.80;100305.00;;;;4839297;29;20124;-80
2022/03/04 12:13:03;;;;;;;0.00;0.00;;;;;34.70;100292.00;;;;4839503;29;20461;-80
2022/03/04 12:16:09;;;;;;;0.00;0.00;;;;;35.40;100301.00;;;;4856593;29;20125;-79
2022/03/04 12:18:45;;;;;;;13.13;11.93;;;;;35.70;100315.00;;;;4846945;29;20589;-81
2022/03/04 12:21:28;;;;;;;0.00;0.00;;;;;34.80;100344.00;;;;4856325;29;20064;-80
2022/03/04 12:24:03;;;;;;;0.03;0.03;;;;;34.40;100334.00;;;;4856997;29;20046;-80
2022/03/04 12:26:44;;;;;;;0.20;0.20;;;;;34.40;100341.00;;;;4856507;29;20501;-80
2022/03/04 12:29:17;;;;;;;0.00;0.00;;;;;34.10;100355.00;;;;4856503;29;20045;-78